sensor_id;sensor_type;location;lat;lon;timestamp;P1;durP1;ratioP1;P2;durP2;ratioP2
52456;SDS011;38369;52.840;7.082;2023-11-19T00:02:10;74.68;;;31.10;;
52456;SDS011;38369;52.840;7.082;2023-11-19T00:04:36;81.55;;;33.03;;
52456;SDS011;38369;52.840;7.082;2023-11-19T00:07:04;66.72;;;29.20;;
52456;SDS011;38369;52.840;7.082;2023-11-19T00:09:32;63.65;;;28.92;;
52456;SDS011;38369;52.840;7.082;2023-11-19T00:11:58;64.75;;;29.05;;
52456;SDS011;38369;52.840;7.082;2023-11-19T00:14:25;67.10;;;29.50;;
52456;SDS011;38369;52.840;7.082;2023-11-19T00:16:51;67.88;;;29.20;;
52456;SDS011;38369;52.840;7.082;2023-11-19T00:19:18;76.47;;;30.42;;
52456;SDS011;38369;52.840;7.082;2023-11-19T00:21:44;72.35;;;31.80;;
52456;SDS011;38369;52.840;7.082;2023-11-19T00:24:11;74.93;;;33.30;;
52456;SDS011;38369;52.840;7.082;2023-11-19T00:26:37;69.40;;;31.00;;
52456;SDS011;38369;52.840;7.082;2023-11-19T00:29:03;70.80;;;30.65;;
52456;SDS011;38369;52.840;7.082;2023-11-19T00:31:31;72.93;;;30.90;;
52456;SDS011;38369;52.840;7.082;2023-11-19T00:33:57;67.28;;;29.52;;
52456;SDS011;38369;52.840;7.082;2023-11-19T00:36:23;69.28;;;30.65;;
52456;SDS011;38369;52.840;7.082;2023-11-19T00:38:50;68.40;;;29.77;;
52456;SDS011;38369;52.840;7.082;2023-11-19T00:41:17;64.30;;;29.23;;
52456;SDS011;38369;52.840;7.082;2023-11-19T00:43:44;70.10;;;27.88;;
52456;SDS011;38369;52.840;7.082;2023-11-19T00:46:10;68.70;;;31.02;;
52456;SDS011;38369;52.840;7.082;2023-11-19T00:48:36;67.68;;;30.25;;
52456;SDS011;38369;52.840;7.082;2023-11-19T00:51:02;70.47;;;31.08;;
52456;SDS011;38369;52.840;7.082;2023-11-19T00:53:29;68.95;;;31.92;;
52456;SDS011;38369;52.840;7.082;2023-11-19T00:55:55;76.20;;;34.72;;
52456;SDS011;38369;52.840;7.082;2023-11-19T00:58:22;70.13;;;33.45;;
52456;SDS011;38369;52.840;7.082;2023-11-19T01:00:48;75.47;;;33.30;;
52456;SDS011;38369;52.840;7.082;2023-11-19T01:03:14;79.60;;;33.08;;
52456;SDS011;38369;52.840;7.082;2023-11-19T01:05:41;86.68;;;34.50;;
52456;SDS011;38369;52.840;7.082;2023-11-19T01:08:07;65.78;;;31.30;;
52456;SDS011;38369;52.840;7.082;2023-11-19T01:10:34;81.95;;;33.33;;
52456;SDS011;38369;52.840;7.082;2023-11-19T01:13:02;79.68;;;32.72;;
52456;SDS011;38369;52.840;7.082;2023-11-19T01:15:31;76.70;;;33.38;;
52456;SDS011;38369;52.840;7.082;2023-11-19T01:17:57;69.22;;;32.28;;
52456;SDS011;38369;52.840;7.082;2023-11-19T01:20:23;75.20;;;32.90;;
52456;SDS011;38369;52.840;7.082;2023-11-19T01:22:49;67.15;;;31.15;;
52456;SDS011;38369;52.840;7.082;2023-11-19T01:25:16;71.90;;;31.52;;
52456;SDS011;38369;52.840;7.082;2023-11-19T01:27:42;78.45;;;32.85;;
52456;SDS011;38369;52.840;7.082;2023-11-19T01:30:08;72.30;;;31.55;;
52456;SDS011;38369;52.840;7.082;2023-11-19T01:32:37;72.72;;;31.85;;
52456;SDS011;38369;52.840;7.082;2023-11-19T01:35:03;70.28;;;31.30;;
52456;SDS011;38369;52.840;7.082;2023-11-19T01:37:30;69.05;;;31.10;;
52456;SDS011;38369;52.840;7.082;2023-11-19T01:39:57;69.53;;;30.00;;
52456;SDS011;38369;52.840;7.082;2023-11-19T01:42:23;67.10;;;28.50;;
52456;SDS011;38369;52.840;7.082;2023-11-19T01:44:58;63.30;;;28.52;;
52456;SDS011;38369;52.840;7.082;2023-11-19T01:47:25;64.53;;;28.83;;
52456;SDS011;38369;52.840;7.082;2023-11-19T01:49:52;69.05;;;30.30;;
52456;SDS011;38369;52.840;7.082;2023-11-19T01:52:18;75.30;;;30.65;;
52456;SDS011;38369;52.840;7.082;2023-11-19T01:54:45;72.82;;;30.33;;
52456;SDS011;38369;52.840;7.082;2023-11-19T01:57:12;64.20;;;29.50;;
52456;SDS011;38369;52.840;7.082;2023-11-19T01:59:38;68.32;;;29.75;;
52456;SDS011;38369;52.840;7.082;2023-11-19T02:02:05;63.97;;;31.02;;
52456;SDS011;38369;52.840;7.082;2023-11-19T02:04:31;70.25;;;30.17;;
52456;SDS011;38369;52.840;7.082;2023-11-19T02:06:58;67.72;;;29.77;;
52456;SDS011;38369;52.840;7.082;2023-11-19T02:09:24;74.93;;;30.75;;
52456;SDS011;38369;52.840;7.082;2023-11-19T02:11:50;69.63;;;29.85;;
52456;SDS011;38369;52.840;7.082;2023-11-19T02:14:21;71.47;;;31.00;;
52456;SDS011;38369;52.840;7.082;2023-11-19T02:16:50;77.50;;;30.52;;
52456;SDS011;38369;52.840;7.082;2023-11-19T02:19:18;75.22;;;30.25;;
52456;SDS011;38369;52.840;7.082;2023-11-19T02:21:44;73.95;;;31.58;;
52456;SDS011;38369;52.840;7.082;2023-11-19T02:24:11;71.53;;;30.88;;
52456;SDS011;38369;52.840;7.082;2023-11-19T02:26:47;82.10;;;32.08;;
52456;SDS011;38369;52.840;7.082;2023-11-19T02:29:14;79.65;;;30.00;;
52456;SDS011;38369;52.840;7.082;2023-11-19T02:31:40;66.00;;;30.88;;
52456;SDS011;38369;52.840;7.082;2023-11-19T02:34:06;77.53;;;31.05;;
52456;SDS011;38369;52.840;7.082;2023-11-19T02:36:32;72.10;;;29.02;;
52456;SDS011;38369;52.840;7.082;2023-11-19T02:38:58;79.43;;;29.83;;
52456;SDS011;38369;52.840;7.082;2023-11-19T02:41:24;66.82;;;27.85;;
52456;SDS011;38369;52.840;7.082;2023-11-19T02:43:50;83.35;;;28.92;;
52456;SDS011;38369;52.840;7.082;2023-11-19T02:46:16;56.35;;;26.40;;
52456;SDS011;38369;52.840;7.082;2023-11-19T02:48:42;76.75;;;30.48;;
52456;SDS011;38369;52.840;7.082;2023-11-19T02:51:11;62.75;;;26.95;;
52456;SDS011;38369;52.840;7.082;2023-11-19T02:53:38;63.92;;;25.92;;
52456;SDS011;38369;52.840;7.082;2023-11-19T02:56:04;71.70;;;26.85;;
52456;SDS011;38369;52.840;7.082;2023-11-19T02:58:42;55.72;;;23.90;;
52456;SDS011;38369;52.840;7.082;2023-11-19T03:01:09;65.00;;;24.70;;
52456;SDS011;38369;52.840;7.082;2023-11-19T03:03:44;68.22;;;25.35;;
52456;SDS011;38369;52.840;7.082;2023-11-19T03:06:10;60.92;;;24.63;;
52456;SDS011;38369;52.840;7.082;2023-11-19T03:08:37;63.83;;;24.35;;
52456;SDS011;38369;52.840;7.082;2023-11-19T03:11:03;51.20;;;22.48;;
52456;SDS011;38369;52.840;7.082;2023-11-19T03:13:30;47.22;;;22.13;;
52456;SDS011;38369;52.840;7.082;2023-11-19T03:15:56;49.40;;;21.38;;
52456;SDS011;38369;52.840;7.082;2023-11-19T03:18:21;47.83;;;18.98;;
52456;SDS011;38369;52.840;7.082;2023-11-19T03:20:47;50.70;;;17.33;;
52456;SDS011;38369;52.840;7.082;2023-11-19T03:23:14;52.30;;;17.75;;
52456;SDS011;38369;52.840;7.082;2023-11-19T03:25:40;49.85;;;14.10;;
52456;SDS011;38369;52.840;7.082;2023-11-19T03:28:06;47.70;;;13.25;;
52456;SDS011;38369;52.840;7.082;2023-11-19T03:30:32;38.80;;;11.38;;
52456;SDS011;38369;52.840;7.082;2023-11-19T03:32:58;45.58;;;11.02;;
52456;SDS011;38369;52.840;7.082;2023-11-19T03:35:26;47.28;;;11.38;;
52456;SDS011;38369;52.840;7.082;2023-11-19T03:37:53;42.03;;;10.02;;
52456;SDS011;38369;52.840;7.082;2023-11-19T03:40:19;41.97;;;9.57;;
52456;SDS011;38369;52.840;7.082;2023-11-19T03:42:45;41.40;;;10.18;;
52456;SDS011;38369;52.840;7.082;2023-11-19T03:45:11;49.65;;;10.00;;
52456;SDS011;38369;52.840;7.082;2023-11-19T03:47:37;40.83;;;8.63;;
52456;SDS011;38369;52.840;7.082;2023-11-19T03:50:04;50.83;;;8.85;;
52456;SDS011;38369;52.840;7.082;2023-11-19T03:52:30;50.33;;;8.90;;
52456;SDS011;38369;52.840;7.082;2023-11-19T03:54:56;44.22;;;10.38;;
52456;SDS011;38369;52.840;7.082;2023-11-19T03:57:22;45.05;;;9.35;;
52456;SDS011;38369;52.840;7.082;2023-11-19T03:59:48;37.95;;;8.18;;
52456;SDS011;38369;52.840;7.082;2023-11-19T04:02:15;47.13;;;8.68;;
52456;SDS011;38369;52.840;7.082;2023-11-19T04:04:41;41.20;;;8.63;;
52456;SDS011;38369;52.840;7.082;2023-11-19T04:07:07;47.28;;;8.13;;
52456;SDS011;38369;52.840;7.082;2023-11-19T04:09:33;50.40;;;8.98;;
52456;SDS011;38369;52.840;7.082;2023-11-19T04:11:59;46.08;;;9.07;;
52456;SDS011;38369;52.840;7.082;2023-11-19T04:14:26;35.10;;;7.57;;
52456;SDS011;38369;52.840;7.082;2023-11-19T04:16:52;39.90;;;7.80;;
52456;SDS011;38369;52.840;7.082;2023-11-19T04:19:18;39.63;;;8.40;;
52456;SDS011;38369;52.840;7.082;2023-11-19T04:21:44;44.30;;;8.02;;
52456;SDS011;38369;52.840;7.082;2023-11-19T04:24:11;41.50;;;8.60;;
52456;SDS011;38369;52.840;7.082;2023-11-19T04:26:44;48.35;;;8.52;;
52456;SDS011;38369;52.840;7.082;2023-11-19T04:29:14;37.60;;;8.75;;
52456;SDS011;38369;52.840;7.082;2023-11-19T04:31:40;42.42;;;8.73;;
52456;SDS011;38369;52.840;7.082;2023-11-19T04:34:06;37.13;;;8.10;;
52456;SDS011;38369;52.840;7.082;2023-11-19T04:36:32;45.53;;;8.07;;
52456;SDS011;38369;52.840;7.082;2023-11-19T04:38:59;38.95;;;7.65;;
52456;SDS011;38369;52.840;7.082;2023-11-19T04:41:25;42.83;;;8.05;;
52456;SDS011;38369;52.840;7.082;2023-11-19T04:43:53;43.50;;;7.70;;
52456;SDS011;38369;52.840;7.082;2023-11-19T04:46:19;39.65;;;8.40;;
52456;SDS011;38369;52.840;7.082;2023-11-19T04:48:45;53.80;;;7.78;;
52456;SDS011;38369;52.840;7.082;2023-11-19T04:51:11;49.97;;;8.70;;
52456;SDS011;38369;52.840;7.082;2023-11-19T04:53:37;34.72;;;7.72;;
52456;SDS011;38369;52.840;7.082;2023-11-19T04:56:09;46.50;;;9.55;;
52456;SDS011;38369;52.840;7.082;2023-11-19T04:58:35;43.17;;;9.63;;
52456;SDS011;38369;52.840;7.082;2023-11-19T05:01:02;47.00;;;8.48;;
52456;SDS011;38369;52.840;7.082;2023-11-19T05:03:28;45.72;;;8.57;;
52456;SDS011;38369;52.840;7.082;2023-11-19T05:05:55;48.45;;;9.10;;
52456;SDS011;38369;52.840;7.082;2023-11-19T05:08:21;40.80;;;9.40;;
52456;SDS011;38369;52.840;7.082;2023-11-19T05:10:47;41.83;;;8.13;;
52456;SDS011;38369;52.840;7.082;2023-11-19T05:13:12;46.17;;;8.77;;
52456;SDS011;38369;52.840;7.082;2023-11-19T05:15:40;49.65;;;9.18;;
52456;SDS011;38369;52.840;7.082;2023-11-19T05:18:06;42.10;;;9.50;;
52456;SDS011;38369;52.840;7.082;2023-11-19T05:20:32;37.28;;;8.65;;
52456;SDS011;38369;52.840;7.082;2023-11-19T05:22:58;43.83;;;9.13;;
52456;SDS011;38369;52.840;7.082;2023-11-19T05:25:25;40.88;;;7.95;;
52456;SDS011;38369;52.840;7.082;2023-11-19T05:27:51;43.00;;;8.50;;
52456;SDS011;38369;52.840;7.082;2023-11-19T05:30:17;42.42;;;8.73;;
52456;SDS011;38369;52.840;7.082;2023-11-19T05:32:43;50.65;;;9.43;;
52456;SDS011;38369;52.840;7.082;2023-11-19T05:35:10;43.85;;;8.32;;
52456;SDS011;38369;52.840;7.082;2023-11-19T05:37:36;47.45;;;10.35;;
52456;SDS011;38369;52.840;7.082;2023-11-19T05:40:03;39.15;;;8.00;;
52456;SDS011;38369;52.840;7.082;2023-11-19T05:42:32;33.10;;;8.32;;
52456;SDS011;38369;52.840;7.082;2023-11-19T05:44:58;53.67;;;9.27;;
52456;SDS011;38369;52.840;7.082;2023-11-19T05:47:24;33.03;;;8.68;;
52456;SDS011;38369;52.840;7.082;2023-11-19T05:49:50;54.45;;;9.48;;
52456;SDS011;38369;52.840;7.082;2023-11-19T05:52:16;55.53;;;10.20;;
52456;SDS011;38369;52.840;7.082;2023-11-19T05:54:42;46.70;;;8.57;;
52456;SDS011;38369;52.840;7.082;2023-11-19T05:57:08;45.08;;;10.27;;
52456;SDS011;38369;52.840;7.082;2023-11-19T05:59:35;55.97;;;9.50;;
52456;SDS011;38369;52.840;7.082;2023-11-19T06:02:01;42.95;;;9.45;;
52456;SDS011;38369;52.840;7.082;2023-11-19T06:04:27;52.22;;;10.07;;
52456;SDS011;38369;52.840;7.082;2023-11-19T06:06:53;45.53;;;9.10;;
52456;SDS011;38369;52.840;7.082;2023-11-19T06:09:22;44.05;;;8.93;;
52456;SDS011;38369;52.840;7.082;2023-11-19T06:11:49;40.85;;;8.70;;
52456;SDS011;38369;52.840;7.082;2023-11-19T06:14:16;47.05;;;7.72;;
52456;SDS011;38369;52.840;7.082;2023-11-19T06:16:42;55.05;;;9.55;;
52456;SDS011;38369;52.840;7.082;2023-11-19T06:19:08;42.20;;;9.13;;
52456;SDS011;38369;52.840;7.082;2023-11-19T06:21:36;46.28;;;9.15;;
52456;SDS011;38369;52.840;7.082;2023-11-19T06:24:02;43.17;;;8.23;;
52456;SDS011;38369;52.840;7.082;2023-11-19T06:26:28;39.10;;;8.25;;
52456;SDS011;38369;52.840;7.082;2023-11-19T06:28:54;50.97;;;11.65;;
52456;SDS011;38369;52.840;7.082;2023-11-19T06:31:20;44.88;;;8.02;;
52456;SDS011;38369;52.840;7.082;2023-11-19T06:33:46;59.90;;;10.15;;
52456;SDS011;38369;52.840;7.082;2023-11-19T06:36:16;54.53;;;10.32;;
52456;SDS011;38369;52.840;7.082;2023-11-19T06:38:42;42.33;;;8.25;;
52456;SDS011;38369;52.840;7.082;2023-11-19T06:41:08;46.47;;;9.52;;
52456;SDS011;38369;52.840;7.082;2023-11-19T06:43:34;45.63;;;10.10;;
52456;SDS011;38369;52.840;7.082;2023-11-19T06:46:01;47.28;;;11.05;;
52456;SDS011;38369;52.840;7.082;2023-11-19T06:48:27;44.65;;;8.98;;
52456;SDS011;38369;52.840;7.082;2023-11-19T06:50:53;44.33;;;7.90;;
52456;SDS011;38369;52.840;7.082;2023-11-19T06:53:18;52.92;;;9.23;;
52456;SDS011;38369;52.840;7.082;2023-11-19T06:55:44;56.67;;;9.90;;
52456;SDS011;38369;52.840;7.082;2023-11-19T06:58:10;38.47;;;7.63;;
52456;SDS011;38369;52.840;7.082;2023-11-19T07:00:37;58.35;;;10.25;;
52456;SDS011;38369;52.840;7.082;2023-11-19T07:03:03;43.03;;;8.35;;
52456;SDS011;38369;52.840;7.082;2023-11-19T07:05:31;43.88;;;8.93;;
52456;SDS011;38369;52.840;7.082;2023-11-19T07:07:57;53.08;;;11.50;;
52456;SDS011;38369;52.840;7.082;2023-11-19T07:10:23;41.60;;;10.13;;
52456;SDS011;38369;52.840;7.082;2023-11-19T07:12:48;72.13;;;11.88;;
52456;SDS011;38369;52.840;7.082;2023-11-19T07:15:15;44.78;;;9.02;;
52456;SDS011;38369;52.840;7.082;2023-11-19T07:17:42;43.42;;;9.60;;
52456;SDS011;38369;52.840;7.082;2023-11-19T07:20:10;43.55;;;9.30;;
52456;SDS011;38369;52.840;7.082;2023-11-19T07:22:41;46.35;;;9.77;;
52456;SDS011;38369;52.840;7.082;2023-11-19T07:25:08;59.10;;;11.38;;
52456;SDS011;38369;52.840;7.082;2023-11-19T07:27:34;50.17;;;9.20;;
52456;SDS011;38369;52.840;7.082;2023-11-19T07:30:00;53.00;;;10.13;;
52456;SDS011;38369;52.840;7.082;2023-11-19T07:32:26;56.42;;;10.77;;
52456;SDS011;38369;52.840;7.082;2023-11-19T07:34:52;55.85;;;8.57;;
52456;SDS011;38369;52.840;7.082;2023-11-19T07:37:18;36.80;;;8.00;;
52456;SDS011;38369;52.840;7.082;2023-11-19T07:39:44;38.60;;;8.88;;
52456;SDS011;38369;52.840;7.082;2023-11-19T07:42:10;50.28;;;10.10;;
52456;SDS011;38369;52.840;7.082;2023-11-19T07:44:36;43.05;;;9.05;;
52456;SDS011;38369;52.840;7.082;2023-11-19T07:47:02;56.65;;;9.65;;
52456;SDS011;38369;52.840;7.082;2023-11-19T07:49:28;47.40;;;9.20;;
52456;SDS011;38369;52.840;7.082;2023-11-19T07:51:55;49.90;;;9.13;;
52456;SDS011;38369;52.840;7.082;2023-11-19T07:54:21;59.03;;;10.55;;
52456;SDS011;38369;52.840;7.082;2023-11-19T07:56:47;46.78;;;9.15;;
52456;SDS011;38369;52.840;7.082;2023-11-19T07:59:15;39.92;;;8.07;;
52456;SDS011;38369;52.840;7.082;2023-11-19T08:01:41;45.15;;;8.57;;
52456;SDS011;38369;52.840;7.082;2023-11-19T08:04:07;52.58;;;8.77;;
52456;SDS011;38369;52.840;7.082;2023-11-19T08:06:33;50.60;;;8.77;;
52456;SDS011;38369;52.840;7.082;2023-11-19T08:08:59;51.10;;;10.25;;
52456;SDS011;38369;52.840;7.082;2023-11-19T08:11:26;47.13;;;9.70;;
52456;SDS011;38369;52.840;7.082;2023-11-19T08:13:52;39.30;;;9.77;;
52456;SDS011;38369;52.840;7.082;2023-11-19T08:16:18;43.53;;;10.05;;
52456;SDS011;38369;52.840;7.082;2023-11-19T08:18:44;45.00;;;8.70;;
52456;SDS011;38369;52.840;7.082;2023-11-19T08:21:10;46.47;;;8.75;;
52456;SDS011;38369;52.840;7.082;2023-11-19T08:23:36;58.72;;;8.73;;
52456;SDS011;38369;52.840;7.082;2023-11-19T08:26:03;38.88;;;6.20;;
52456;SDS011;38369;52.840;7.082;2023-11-19T08:28:29;55.35;;;12.60;;
52456;SDS011;38369;52.840;7.082;2023-11-19T08:30:56;44.08;;;8.20;;
52456;SDS011;38369;52.840;7.082;2023-11-19T08:33:23;59.63;;;10.20;;
52456;SDS011;38369;52.840;7.082;2023-11-19T08:35:49;45.17;;;9.32;;
52456;SDS011;38369;52.840;7.082;2023-11-19T08:38:15;45.88;;;8.80;;
52456;SDS011;38369;52.840;7.082;2023-11-19T08:40:41;55.08;;;8.98;;
52456;SDS011;38369;52.840;7.082;2023-11-19T08:43:07;48.53;;;10.30;;
52456;SDS011;38369;52.840;7.082;2023-11-19T08:45:33;42.70;;;8.25;;
52456;SDS011;38369;52.840;7.082;2023-11-19T08:47:59;50.78;;;10.07;;
52456;SDS011;38369;52.840;7.082;2023-11-19T08:50:25;39.95;;;8.45;;
52456;SDS011;38369;52.840;7.082;2023-11-19T08:52:51;44.30;;;9.38;;
52456;SDS011;38369;52.840;7.082;2023-11-19T08:55:17;34.38;;;6.57;;
52456;SDS011;38369;52.840;7.082;2023-11-19T08:57:43;42.72;;;9.07;;
52456;SDS011;38369;52.840;7.082;2023-11-19T09:00:10;46.33;;;8.60;;
52456;SDS011;38369;52.840;7.082;2023-11-19T09:02:39;44.13;;;8.43;;
52456;SDS011;38369;52.840;7.082;2023-11-19T09:05:05;48.92;;;9.52;;
52456;SDS011;38369;52.840;7.082;2023-11-19T09:07:34;47.85;;;9.18;;
52456;SDS011;38369;52.840;7.082;2023-11-19T09:10:00;47.47;;;9.90;;
52456;SDS011;38369;52.840;7.082;2023-11-19T09:12:26;59.53;;;10.07;;
52456;SDS011;38369;52.840;7.082;2023-11-19T09:14:52;61.80;;;10.25;;
52456;SDS011;38369;52.840;7.082;2023-11-19T09:17:19;45.38;;;9.25;;
52456;SDS011;38369;52.840;7.082;2023-11-19T09:19:45;42.92;;;9.32;;
52456;SDS011;38369;52.840;7.082;2023-11-19T09:22:11;50.38;;;9.35;;
52456;SDS011;38369;52.840;7.082;2023-11-19T09:24:37;50.33;;;8.98;;
52456;SDS011;38369;52.840;7.082;2023-11-19T09:27:03;45.08;;;10.52;;
52456;SDS011;38369;52.840;7.082;2023-11-19T09:29:31;48.22;;;8.02;;
52456;SDS011;38369;52.840;7.082;2023-11-19T09:31:57;46.83;;;8.00;;
52456;SDS011;38369;52.840;7.082;2023-11-19T09:34:23;46.20;;;9.45;;
52456;SDS011;38369;52.840;7.082;2023-11-19T09:36:49;47.90;;;9.23;;
52456;SDS011;38369;52.840;7.082;2023-11-19T09:39:15;49.58;;;9.02;;
52456;SDS011;38369;52.840;7.082;2023-11-19T09:41:43;47.63;;;9.38;;
52456;SDS011;38369;52.840;7.082;2023-11-19T09:44:10;44.63;;;8.90;;
52456;SDS011;38369;52.840;7.082;2023-11-19T09:46:37;47.83;;;8.80;;
52456;SDS011;38369;52.840;7.082;2023-11-19T09:49:03;37.97;;;8.98;;
52456;SDS011;38369;52.840;7.082;2023-11-19T09:51:29;48.65;;;7.43;;
52456;SDS011;38369;52.840;7.082;2023-11-19T09:53:55;52.53;;;10.75;;
52456;SDS011;38369;52.840;7.082;2023-11-19T09:56:21;48.15;;;9.27;;
52456;SDS011;38369;52.840;7.082;2023-11-19T09:58:48;47.53;;;8.52;;
52456;SDS011;38369;52.840;7.082;2023-11-19T10:01:14;44.90;;;8.75;;
52456;SDS011;38369;52.840;7.082;2023-11-19T10:03:40;45.42;;;9.70;;
52456;SDS011;38369;52.840;7.082;2023-11-19T10:06:09;42.05;;;9.90;;
52456;SDS011;38369;52.840;7.082;2023-11-19T10:08:39;42.80;;;8.10;;
52456;SDS011;38369;52.840;7.082;2023-11-19T10:11:08;50.58;;;10.07;;
52456;SDS011;38369;52.840;7.082;2023-11-19T10:13:36;41.03;;;8.05;;
52456;SDS011;38369;52.840;7.082;2023-11-19T10:16:09;41.67;;;8.43;;
52456;SDS011;38369;52.840;7.082;2023-11-19T10:18:36;38.10;;;8.40;;
52456;SDS011;38369;52.840;7.082;2023-11-19T10:21:05;49.03;;;8.32;;
52456;SDS011;38369;52.840;7.082;2023-11-19T10:23:47;43.33;;;8.77;;
52456;SDS011;38369;52.840;7.082;2023-11-19T10:26:14;47.58;;;9.68;;
52456;SDS011;38369;52.840;7.082;2023-11-19T10:28:40;66.20;;;11.18;;
52456;SDS011;38369;52.840;7.082;2023-11-19T10:31:09;45.03;;;9.68;;
52456;SDS011;38369;52.840;7.082;2023-11-19T10:33:35;50.83;;;9.88;;
52456;SDS011;38369;52.840;7.082;2023-11-19T10:36:01;48.30;;;8.13;;
52456;SDS011;38369;52.840;7.082;2023-11-19T10:38:27;45.25;;;9.18;;
52456;SDS011;38369;52.840;7.082;2023-11-19T10:40:53;59.60;;;9.93;;
52456;SDS011;38369;52.840;7.082;2023-11-19T10:43:20;44.35;;;9.60;;
52456;SDS011;38369;52.840;7.082;2023-11-19T10:45:50;66.55;;;11.02;;
52456;SDS011;38369;52.840;7.082;2023-11-19T10:48:16;48.28;;;9.25;;
52456;SDS011;38369;52.840;7.082;2023-11-19T10:50:43;57.80;;;12.43;;
52456;SDS011;38369;52.840;7.082;2023-11-19T10:53:10;53.10;;;9.82;;
52456;SDS011;38369;52.840;7.082;2023-11-19T10:55:40;46.17;;;9.40;;
52456;SDS011;38369;52.840;7.082;2023-11-19T10:58:09;50.83;;;10.15;;
52456;SDS011;38369;52.840;7.082;2023-11-19T11:00:40;51.33;;;8.35;;
52456;SDS011;38369;52.840;7.082;2023-11-19T11:03:18;44.83;;;8.60;;
52456;SDS011;38369;52.840;7.082;2023-11-19T11:05:48;40.78;;;7.20;;
52456;SDS011;38369;52.840;7.082;2023-11-19T11:08:14;45.85;;;8.65;;
52456;SDS011;38369;52.840;7.082;2023-11-19T11:11:01;46.42;;;8.18;;
52456;SDS011;38369;52.840;7.082;2023-11-19T11:13:31;51.00;;;9.75;;
52456;SDS011;38369;52.840;7.082;2023-11-19T11:15:57;51.17;;;9.80;;
52456;SDS011;38369;52.840;7.082;2023-11-19T11:18:24;40.22;;;8.20;;
52456;SDS011;38369;52.840;7.082;2023-11-19T11:21:03;46.83;;;8.93;;
52456;SDS011;38369;52.840;7.082;2023-11-19T11:23:35;47.85;;;9.77;;
52456;SDS011;38369;52.840;7.082;2023-11-19T11:29:22;50.65;;;9.57;;
52456;SDS011;38369;52.840;7.082;2023-11-19T11:31:48;51.90;;;10.30;;
52456;SDS011;38369;52.840;7.082;2023-11-19T11:39:34;44.58;;;8.48;;
52456;SDS011;38369;52.840;7.082;2023-11-19T11:50:11;33.88;;;7.95;;
52456;SDS011;38369;52.840;7.082;2023-11-19T11:57:51;51.80;;;9.30;;
52456;SDS011;38369;52.840;7.082;2023-11-19T12:02:55;42.40;;;7.65;;
52456;SDS011;38369;52.840;7.082;2023-11-19T12:05:22;42.17;;;7.82;;
52456;SDS011;38369;52.840;7.082;2023-11-19T12:07:59;38.15;;;7.45;;
52456;SDS011;38369;52.840;7.082;2023-11-19T12:10:26;38.05;;;6.53;;
52456;SDS011;38369;52.840;7.082;2023-11-19T12:12:59;29.75;;;6.55;;
52456;SDS011;38369;52.840;7.082;2023-11-19T12:15:26;32.63;;;6.45;;
52456;SDS011;38369;52.840;7.082;2023-11-19T12:17:52;32.53;;;7.22;;
52456;SDS011;38369;52.840;7.082;2023-11-19T12:20:28;44.47;;;8.05;;
52456;SDS011;38369;52.840;7.082;2023-11-19T12:23:04;43.15;;;8.13;;
52456;SDS011;38369;52.840;7.082;2023-11-19T12:25:34;47.17;;;7.90;;
52456;SDS011;38369;52.840;7.082;2023-11-19T12:28:01;36.88;;;7.05;;
52456;SDS011;38369;52.840;7.082;2023-11-19T12:30:29;51.58;;;7.88;;
52456;SDS011;38369;52.840;7.082;2023-11-19T12:32:55;40.85;;;7.57;;
52456;SDS011;38369;52.840;7.082;2023-11-19T12:35:22;37.38;;;5.70;;
52456;SDS011;38369;52.840;7.082;2023-11-19T12:37:49;31.77;;;6.40;;
52456;SDS011;38369;52.840;7.082;2023-11-19T12:40:19;38.83;;;7.97;;
52456;SDS011;38369;52.840;7.082;2023-11-19T12:42:45;27.60;;;6.28;;
52456;SDS011;38369;52.840;7.082;2023-11-19T12:45:12;38.92;;;7.10;;
52456;SDS011;38369;52.840;7.082;2023-11-19T12:47:42;47.03;;;9.25;;
52456;SDS011;38369;52.840;7.082;2023-11-19T12:50:08;36.35;;;6.68;;
52456;SDS011;38369;52.840;7.082;2023-11-19T12:52:35;49.47;;;8.55;;
52456;SDS011;38369;52.840;7.082;2023-11-19T12:55:02;47.10;;;8.30;;
52456;SDS011;38369;52.840;7.082;2023-11-19T12:57:41;37.67;;;7.03;;
52456;SDS011;38369;52.840;7.082;2023-11-19T13:00:08;36.00;;;8.40;;
52456;SDS011;38369;52.840;7.082;2023-11-19T13:02:47;40.33;;;6.82;;
52456;SDS011;38369;52.840;7.082;2023-11-19T13:05:26;50.00;;;8.25;;
52456;SDS011;38369;52.840;7.082;2023-11-19T13:08:05;33.70;;;7.37;;
52456;SDS011;38369;52.840;7.082;2023-11-19T13:10:51;43.78;;;6.35;;
52456;SDS011;38369;52.840;7.082;2023-11-19T13:13:18;39.78;;;7.05;;
52456;SDS011;38369;52.840;7.082;2023-11-19T13:15:45;35.15;;;7.40;;
52456;SDS011;38369;52.840;7.082;2023-11-19T13:18:11;36.72;;;7.95;;
52456;SDS011;38369;52.840;7.082;2023-11-19T13:20:37;37.10;;;8.00;;
52456;SDS011;38369;52.840;7.082;2023-11-19T13:23:05;48.78;;;8.18;;
52456;SDS011;38369;52.840;7.082;2023-11-19T13:25:40;39.75;;;7.13;;
52456;SDS011;38369;52.840;7.082;2023-11-19T13:28:06;30.85;;;7.65;;
52456;SDS011;38369;52.840;7.082;2023-11-19T13:30:31;27.65;;;5.60;;
52456;SDS011;38369;52.840;7.082;2023-11-19T13:32:57;28.70;;;5.82;;
52456;SDS011;38369;52.840;7.082;2023-11-19T13:35:23;21.40;;;5.00;;
52456;SDS011;38369;52.840;7.082;2023-11-19T13:37:50;32.80;;;5.65;;
52456;SDS011;38369;52.840;7.082;2023-11-19T13:40:16;34.35;;;5.72;;
52456;SDS011;38369;52.840;7.082;2023-11-19T13:42:44;30.65;;;5.35;;
52456;SDS011;38369;52.840;7.082;2023-11-19T13:47:37;38.13;;;6.85;;
52456;SDS011;38369;52.840;7.082;2023-11-19T13:50:06;40.53;;;7.55;;
52456;SDS011;38369;52.840;7.082;2023-11-19T13:52:33;41.08;;;6.65;;
52456;SDS011;38369;52.840;7.082;2023-11-19T13:54:59;39.65;;;6.95;;
52456;SDS011;38369;52.840;7.082;2023-11-19T13:57:25;46.30;;;8.48;;
52456;SDS011;38369;52.840;7.082;2023-11-19T13:59:51;40.63;;;7.78;;
52456;SDS011;38369;52.840;7.082;2023-11-19T14:02:16;38.90;;;7.38;;
52456;SDS011;38369;52.840;7.082;2023-11-19T14:04:42;37.88;;;7.10;;
52456;SDS011;38369;52.840;7.082;2023-11-19T14:07:08;37.45;;;7.65;;
52456;SDS011;38369;52.840;7.082;2023-11-19T14:09:34;46.28;;;8.98;;
52456;SDS011;38369;52.840;7.082;2023-11-19T14:12:00;32.58;;;6.97;;
52456;SDS011;38369;52.840;7.082;2023-11-19T14:14:26;43.20;;;7.50;;
52456;SDS011;38369;52.840;7.082;2023-11-19T14:16:52;46.25;;;8.55;;
52456;SDS011;38369;52.840;7.082;2023-11-19T14:19:18;34.53;;;6.43;;
52456;SDS011;38369;52.840;7.082;2023-11-19T14:21:44;37.55;;;7.45;;
52456;SDS011;38369;52.840;7.082;2023-11-19T14:24:10;34.92;;;6.88;;
52456;SDS011;38369;52.840;7.082;2023-11-19T14:26:36;38.78;;;7.10;;
52456;SDS011;38369;52.840;7.082;2023-11-19T14:29:02;35.05;;;6.97;;
52456;SDS011;38369;52.840;7.082;2023-11-19T14:31:28;37.45;;;6.70;;
52456;SDS011;38369;52.840;7.082;2023-11-19T14:33:54;33.67;;;7.47;;
52456;SDS011;38369;52.840;7.082;2023-11-19T14:36:20;32.88;;;7.43;;
52456;SDS011;38369;52.840;7.082;2023-11-19T14:38:46;35.78;;;7.57;;
52456;SDS011;38369;52.840;7.082;2023-11-19T14:41:12;39.28;;;7.60;;
52456;SDS011;38369;52.840;7.082;2023-11-19T14:43:39;37.35;;;7.53;;
52456;SDS011;38369;52.840;7.082;2023-11-19T14:46:05;35.47;;;7.57;;
52456;SDS011;38369;52.840;7.082;2023-11-19T14:48:31;40.20;;;6.50;;
52456;SDS011;38369;52.840;7.082;2023-11-19T14:50:57;39.92;;;7.15;;
52456;SDS011;38369;52.840;7.082;2023-11-19T14:53:23;39.50;;;6.47;;
52456;SDS011;38369;52.840;7.082;2023-11-19T14:55:50;32.92;;;6.15;;
52456;SDS011;38369;52.840;7.082;2023-11-19T14:58:16;50.10;;;7.07;;